createdAt,value
2023-02-15T00:01:14.076Z,0.80
2023-02-15T00:03:42.708Z,-0.60
2023-02-15T00:06:10.321Z,-1.60
2023-02-15T00:08:40.320Z,-2.40
2023-02-15T00:11:52.197Z,-2.90
2023-02-15T00:14:23.342Z,-3.30
2023-02-15T00:16:59.300Z,-3.60
2023-02-15T00:19:29.903Z,-3.80
2023-02-15T00:21:59.565Z,-4.00
2023-02-15T00:24:30.077Z,-4.20
2023-02-15T00:26:58.800Z,-4.30
2023-02-15T00:29:30.873Z,-4.30
2023-02-15T00:31:59.759Z,-4.40
2023-02-15T00:34:49.386Z,-4.40
2023-02-15T00:37:16.478Z,-4.50
2023-02-15T00:39:45.715Z,-4.50
2023-02-15T00:42:16.023Z,-4.60
2023-02-15T00:44:45.598Z,-4.70
2023-02-15T00:49:54.880Z,-4.80
2023-02-15T00:52:23.698Z,-4.90
2023-02-15T00:54:53.619Z,-4.80
2023-02-15T00:57:26.927Z,-4.80
2023-02-15T01:00:17.497Z,-4.90
2023-02-15T01:02:46.282Z,-5.00
2023-02-15T01:05:13.981Z,-5.00
2023-02-15T01:07:43.050Z,-5.10
2023-02-15T01:10:11.467Z,-5.10
2023-02-15T01:12:40.681Z,-5.20
2023-02-15T01:15:08.459Z,-5.20
2023-02-15T01:17:44.488Z,-4.20
2023-02-15T01:20:13.945Z,-3.20
2023-02-15T01:22:42.417Z,-2.50
2023-02-15T01:25:21.218Z,-2.00
2023-02-15T01:27:50.533Z,-1.50
2023-02-15T01:30:29.953Z,-1.10
2023-02-15T01:33:01.468Z,-0.90
2023-02-15T01:35:32.157Z,-0.60
2023-02-15T01:38:01.968Z,-0.40
2023-02-15T01:40:37.945Z,-0.30
2023-02-15T01:43:10.465Z,-0.10
2023-02-15T01:45:40.716Z,0.00
2023-02-15T01:48:29.645Z,0.20
2023-02-15T01:51:03.164Z,0.30
2023-02-15T01:56:29.053Z,0.60
2023-02-15T01:59:13.346Z,0.80
2023-02-15T02:01:44.624Z,0.90
2023-02-15T02:05:01.219Z,1.00
2023-02-15T02:07:34.106Z,1.10
2023-02-15T02:10:13.778Z,1.30
2023-02-15T02:12:43.239Z,1.30
2023-02-15T02:15:13.688Z,1.50
2023-02-15T02:18:19.742Z,1.60
2023-02-15T02:21:26.431Z,1.60
2023-02-15T02:24:15.523Z,1.70
2023-02-15T02:27:40.048Z,1.80
2023-02-15T02:30:33.738Z,1.80
2023-02-15T02:33:46.699Z,1.90
2023-02-15T02:36:35.386Z,2.00
2023-02-15T02:39:30.860Z,2.00
2023-02-15T02:42:42.699Z,2.10
2023-02-15T02:45:22.014Z,2.10
2023-02-15T02:48:05.658Z,2.10
2023-02-15T02:50:34.591Z,2.20
2023-02-15T02:53:01.883Z,2.20
2023-02-15T02:55:55.104Z,2.20
2023-02-15T02:58:30.963Z,2.30
2023-02-15T03:01:28.339Z,2.30
2023-02-15T03:04:12.053Z,2.30
2023-02-15T03:07:09.483Z,2.40
2023-02-15T03:09:49.354Z,2.40
2023-02-15T03:12:33.426Z,2.40
2023-02-15T03:15:28.222Z,2.40
2023-02-15T03:18:04.467Z,2.40
2023-02-15T03:20:40.943Z,2.50
2023-02-15T03:23:19.218Z,2.50
2023-02-15T03:25:56.531Z,2.50
2023-02-15T03:28:35.313Z,2.50
2023-02-15T03:31:08.445Z,2.50
2023-02-15T03:33:43.944Z,2.50
2023-02-15T03:36:32.084Z,2.50
2023-02-15T03:39:32.406Z,2.50
2023-02-15T03:42:25.810Z,2.50
2023-02-15T03:45:03.425Z,2.50
2023-02-15T03:47:45.869Z,2.50
2023-02-15T03:50:47.804Z,2.50
2023-02-15T03:53:21.826Z,2.60
2023-02-15T03:55:57.005Z,2.60
2023-02-15T03:58:45.013Z,2.50
2023-02-15T04:02:04.495Z,2.50
2023-02-15T04:04:36.153Z,2.60
2023-02-15T04:07:12.894Z,2.60
2023-02-15T04:10:00.852Z,2.60
2023-02-15T04:12:29.135Z,2.60
2023-02-15T04:15:20.400Z,2.60
2023-02-15T04:17:48.621Z,2.60
2023-02-15T04:20:38.973Z,2.60
2023-02-15T04:23:31.323Z,2.60
2023-02-15T04:26:00.855Z,2.70
2023-02-15T04:28:29.898Z,2.70
2023-02-15T04:30:58.820Z,2.70
2023-02-15T04:33:28.625Z,2.70
2023-02-15T04:35:55.867Z,2.70
2023-02-15T04:38:25.237Z,2.70
2023-02-15T04:40:53.860Z,2.70
2023-02-15T04:43:24.288Z,2.70
2023-02-15T04:45:53.712Z,2.70
2023-02-15T04:48:30.568Z,2.70
2023-02-15T04:51:06.636Z,2.60
2023-02-15T04:53:37.701Z,2.50
2023-02-15T04:56:06.705Z,2.60
2023-02-15T04:58:33.872Z,2.60
2023-02-15T05:01:12.275Z,2.60
2023-02-15T05:03:43.140Z,2.60
2023-02-15T05:06:13.512Z,2.50
2023-02-15T05:08:40.935Z,2.50
2023-02-15T05:11:11.884Z,2.50
2023-02-15T05:13:40.626Z,2.40
2023-02-15T05:16:07.717Z,2.40
2023-02-15T05:18:35.901Z,2.40
2023-02-15T05:21:07.255Z,2.50
2023-02-15T05:23:36.400Z,2.50
2023-02-15T05:26:25.614Z,2.60
2023-02-15T05:29:00.369Z,2.60
2023-02-15T05:31:28.997Z,2.60
2023-02-15T05:33:57.826Z,2.60
2023-02-15T05:36:29.929Z,2.60
2023-02-15T05:39:00.575Z,2.60
2023-02-15T05:41:27.973Z,2.50
2023-02-15T05:43:58.442Z,2.50
2023-02-15T05:46:25.541Z,2.50
2023-02-15T05:48:57.303Z,2.50
2023-02-15T05:51:25.609Z,2.50
2023-02-15T05:53:54.949Z,2.60
2023-02-15T05:56:36.862Z,2.50
2023-02-15T05:59:06.669Z,2.60
2023-02-15T06:01:39.466Z,2.50
2023-02-15T06:04:16.465Z,2.60
2023-02-15T06:06:45.425Z,2.50
2023-02-15T06:09:15.989Z,2.40
2023-02-15T06:11:46.579Z,2.50
2023-02-15T06:14:17.154Z,2.50
2023-02-15T06:16:48.789Z,2.50
2023-02-15T06:19:18.146Z,2.60
2023-02-15T06:21:48.651Z,2.60
2023-02-15T06:24:18.336Z,2.60
2023-02-15T06:26:55.175Z,2.50
2023-02-15T06:29:32.071Z,1.40
2023-02-15T06:32:02.456Z,-0.20
2023-02-15T06:34:31.609Z,-1.50
2023-02-15T06:37:01.721Z,-2.40
2023-02-15T06:39:31.587Z,-3.00
2023-02-15T06:42:02.090Z,-3.50
2023-02-15T06:44:30.664Z,-3.70
2023-02-15T06:47:08.273Z,-4.00
2023-02-15T06:49:36.609Z,-4.20
2023-02-15T06:52:05.354Z,-4.30
2023-02-15T06:54:33.520Z,-4.50
2023-02-15T06:57:03.785Z,-4.60
2023-02-15T06:59:31.173Z,-4.70
2023-02-15T07:01:59.735Z,-4.70
2023-02-15T07:04:30.743Z,-4.80
2023-02-15T07:07:00.917Z,-4.80
2023-02-15T07:09:37.210Z,-4.90
2023-02-15T07:12:23.459Z,-4.90
2023-02-15T07:14:50.546Z,-4.90
2023-02-15T07:17:36.352Z,-5.00
2023-02-15T07:20:15.346Z,-5.10
2023-02-15T07:22:53.417Z,-5.10
2023-02-15T07:25:23.192Z,-5.20
2023-02-15T07:28:08.856Z,-5.20
2023-02-15T07:30:37.425Z,-5.30
2023-02-15T07:33:23.577Z,-5.20
2023-02-15T07:36:00.197Z,-5.20
2023-02-15T07:38:37.908Z,-5.20
2023-02-15T07:41:13.358Z,-5.30
2023-02-15T07:43:44.402Z,-5.30
2023-02-15T07:46:19.600Z,-5.20
2023-02-15T07:48:48.802Z,-5.30
2023-02-15T07:51:20.604Z,-5.30
2023-02-15T07:53:49.207Z,-5.10
2023-02-15T07:56:18.662Z,-3.90
2023-02-15T07:58:54.146Z,-3.00
2023-02-15T08:01:43.047Z,-2.30
2023-02-15T08:04:20.245Z,-1.60
2023-02-15T08:06:54.577Z,-1.10
2023-02-15T08:09:26.622Z,-0.80
2023-02-15T08:11:54.885Z,-0.40
2023-02-15T08:14:30.421Z,-0.10
2023-02-15T08:17:06.439Z,0.20
2023-02-15T08:19:36.424Z,0.50
2023-02-15T08:22:06.944Z,0.80
2023-02-15T08:24:39.018Z,1.10
2023-02-15T08:27:09.701Z,1.30
2023-02-15T08:29:41.688Z,1.50
2023-02-15T08:32:11.931Z,1.70
2023-02-15T08:34:43.625Z,1.90
2023-02-15T08:37:14.390Z,2.10
2023-02-15T08:39:56.577Z,2.20
2023-02-15T08:42:33.824Z,2.30
2023-02-15T08:45:03.660Z,2.50
2023-02-15T08:47:32.096Z,2.60
2023-02-15T08:50:08.105Z,2.70
2023-02-15T08:52:37.901Z,2.80
2023-02-15T08:55:05.146Z,2.90
2023-02-15T08:57:33.327Z,3.00
2023-02-15T09:00:01.209Z,3.10
2023-02-15T09:02:30.943Z,3.30
2023-02-15T09:07:46.913Z,3.50
2023-02-15T09:10:14.543Z,3.40
2023-02-15T09:12:42.683Z,3.50
2023-02-15T09:15:14.058Z,3.60
2023-02-15T09:17:42.823Z,3.70
2023-02-15T09:20:12.638Z,3.70
2023-02-15T09:22:44.297Z,3.80
2023-02-15T09:25:18.343Z,3.80
2023-02-15T09:27:46.612Z,3.90
2023-02-15T09:30:16.774Z,4.00
2023-02-15T09:32:47.808Z,4.10
2023-02-15T09:35:26.360Z,4.20
2023-02-15T09:37:55.870Z,4.00
2023-02-15T09:40:25.900Z,2.70
2023-02-15T09:43:35.233Z,1.50
2023-02-15T09:46:52.961Z,0.80
2023-02-15T09:49:59.900Z,0.00
2023-02-15T09:52:49.652Z,-0.30
2023-02-15T09:55:44.174Z,-0.50
2023-02-15T09:58:53.874Z,0.00
2023-02-15T10:01:45.715Z,-0.20
2023-02-15T10:04:34.941Z,-0.70
2023-02-15T10:07:42.622Z,-0.60
2023-02-15T10:10:33.192Z,0.10
2023-02-15T10:13:21.224Z,1.00
2023-02-15T10:16:32.783Z,1.70
2023-02-15T10:19:14.694Z,2.30
2023-02-15T10:22:13.781Z,2.90
2023-02-15T10:24:55.229Z,3.30
2023-02-15T10:27:31.350Z,3.60
2023-02-15T10:30:36.479Z,3.70
2023-02-15T10:33:32.029Z,3.90
2023-02-15T10:36:29.954Z,4.10
2023-02-15T10:39:32.302Z,4.30
2023-02-15T10:42:33.864Z,4.50
2023-02-15T10:45:06.292Z,4.50
2023-02-15T10:47:58.942Z,4.70
2023-02-15T10:50:31.097Z,4.80
2023-02-15T10:53:39.465Z,4.80
2023-02-15T10:56:45.350Z,4.80
2023-02-15T10:59:57.586Z,4.80
2023-02-15T11:02:49.067Z,4.90
2023-02-15T11:08:36.737Z,5.20
2023-02-15T11:11:13.087Z,5.30
2023-02-15T11:13:48.827Z,5.50
2023-02-15T11:16:43.461Z,5.60
2023-02-15T11:19:22.113Z,5.70
2023-02-15T11:21:59.818Z,5.70
2023-02-15T11:24:32.259Z,5.70
2023-02-15T11:27:41.337Z,5.80
2023-02-15T11:30:42.979Z,5.90
2023-02-15T11:33:20.212Z,5.70
2023-02-15T11:36:18.640Z,5.60
2023-02-15T11:38:49.982Z,5.60
2023-02-15T11:41:38.622Z,5.50
2023-02-15T11:44:16.390Z,5.40
2023-02-15T11:46:44.977Z,5.50
2023-02-15T11:49:34.089Z,5.50
2023-02-15T11:52:13.587Z,5.50
2023-02-15T11:54:51.994Z,5.50
2023-02-15T11:57:45.954Z,5.50
2023-02-15T12:00:44.583Z,5.60
2023-02-15T12:03:51.564Z,5.50
2023-02-15T12:06:42.299Z,5.50
2023-02-15T12:09:46.234Z,5.60
2023-02-15T12:12:31.043Z,5.50
2023-02-15T12:15:14.487Z,5.50
2023-02-15T12:17:56.796Z,5.50
2023-02-15T12:20:38.097Z,5.50
2023-02-15T12:23:15.760Z,5.60
2023-02-15T12:26:02.398Z,5.70
2023-02-15T12:28:38.858Z,5.70
2023-02-15T12:31:31.256Z,5.60
2023-02-15T12:34:10.819Z,5.60
2023-02-15T12:36:59.087Z,5.50
2023-02-15T12:39:32.843Z,5.50
2023-02-15T12:42:18.519Z,5.60
2023-02-15T12:45:24.424Z,5.60
2023-02-15T12:48:25.156Z,5.60
2023-02-15T12:51:00.340Z,5.60
2023-02-15T12:53:37.925Z,5.60
2023-02-15T12:56:10.660Z,5.60
2023-02-15T12:58:44.361Z,5.50
2023-02-15T13:01:17.491Z,5.50
2023-02-15T13:04:07.997Z,5.50
2023-02-15T13:06:38.156Z,5.50
2023-02-15T13:09:42.976Z,5.50
2023-02-15T13:12:41.008Z,5.60
2023-02-15T13:15:30.776Z,5.60
2023-02-15T13:18:03.261Z,5.60
2023-02-15T13:20:32.958Z,5.60
2023-02-15T13:23:07.503Z,5.60
2023-02-15T13:25:52.382Z,5.50
2023-02-15T13:28:39.170Z,5.50
2023-02-15T13:31:16.004Z,5.50
2023-02-15T13:33:54.362Z,5.40
2023-02-15T13:36:55.280Z,5.50
2023-02-15T13:39:34.341Z,5.40
2023-02-15T13:42:33.302Z,5.50
2023-02-15T13:45:07.960Z,5.40
2023-02-15T13:48:20.960Z,5.50
2023-02-15T13:51:07.828Z,5.60
2023-02-15T13:54:14.636Z,5.50
2023-02-15T13:57:03.902Z,5.50
2023-02-15T14:00:04.487Z,5.40
2023-02-15T14:02:58.611Z,5.40
2023-02-15T14:05:58.751Z,5.40
2023-02-15T14:09:10.232Z,5.30
2023-02-15T14:12:12.996Z,5.40
2023-02-15T14:15:08.548Z,5.40
2023-02-15T14:17:58.249Z,5.40
2023-02-15T14:20:49.172Z,5.40
2023-02-15T14:23:44.499Z,5.40
2023-02-15T14:26:48.040Z,5.30
2023-02-15T14:29:43.289Z,5.30
2023-02-15T14:32:21.178Z,5.30
2023-02-15T14:35:05.427Z,5.30
2023-02-15T14:38:28.288Z,5.30
2023-02-15T14:41:21.764Z,5.20
2023-02-15T14:44:43.591Z,5.20
2023-02-15T14:47:37.359Z,5.20
2023-02-15T14:50:44.967Z,5.20
2023-02-15T14:53:32.050Z,5.10
2023-02-15T14:56:19.389Z,4.50
2023-02-15T14:59:19.694Z,2.50
2023-02-15T15:02:21.762Z,0.90
2023-02-15T15:05:11.014Z,-0.10
2023-02-15T15:07:58.338Z,-1.00
2023-02-15T15:10:41.727Z,-1.40
2023-02-15T15:13:50.281Z,-1.80
2023-02-15T15:16:49.381Z,-2.20
2023-02-15T15:19:54.951Z,-2.50
2023-02-15T15:22:34.460Z,-2.80
2023-02-15T15:25:42.542Z,-3.00
2023-02-15T15:28:34.043Z,-3.10
2023-02-15T15:31:22.968Z,-3.30
2023-02-15T15:34:27.425Z,-3.40
2023-02-15T15:37:26.515Z,-3.50
2023-02-15T15:40:28.937Z,-3.70
2023-02-15T15:43:29.628Z,-3.80
2023-02-15T15:46:43.082Z,-3.50
2023-02-15T15:49:24.036Z,-2.70
2023-02-15T15:52:03.673Z,-1.80
2023-02-15T15:54:31.715Z,-1.20
2023-02-15T15:57:06.040Z,-0.70
2023-02-15T15:59:40.078Z,-0.40
2023-02-15T16:02:17.054Z,-0.10
2023-02-15T16:04:49.220Z,0.20
2023-02-15T16:07:28.761Z,0.50
2023-02-15T16:10:20.816Z,0.70
2023-02-15T16:12:50.876Z,0.80
2023-02-15T16:15:22.567Z,0.90
2023-02-15T16:17:57.837Z,1.00
2023-02-15T16:21:00.207Z,1.10
2023-02-15T16:23:55.934Z,1.20
2023-02-15T16:26:47.308Z,1.20
2023-02-15T16:29:28.489Z,1.30
2023-02-15T16:32:29.508Z,1.30
2023-02-15T16:35:07.385Z,1.40
2023-02-15T16:37:35.851Z,1.50
2023-02-15T16:40:05.580Z,1.60
2023-02-15T16:42:36.803Z,1.60
2023-02-15T16:45:21.414Z,1.60
2023-02-15T16:47:57.678Z,1.60
2023-02-15T16:50:37.159Z,1.50
2023-02-15T16:53:14.488Z,1.50
2023-02-15T16:55:44.997Z,1.60
2023-02-15T16:58:23.833Z,1.60
2023-02-15T17:01:00.398Z,1.70
2023-02-15T17:03:30.917Z,1.70
2023-02-15T17:06:35.768Z,1.80
2023-02-15T17:09:16.038Z,1.80
2023-02-15T17:11:45.978Z,1.90
2023-02-15T17:14:26.611Z,2.00
2023-02-15T17:17:17.649Z,2.10
2023-02-15T17:19:53.894Z,2.10
2023-02-15T17:22:28.314Z,2.10
2023-02-15T17:25:05.626Z,2.20
2023-02-15T17:27:36.824Z,2.20
2023-02-15T17:30:18.879Z,2.20
2023-02-15T17:33:01.124Z,2.20
2023-02-15T17:35:33.529Z,2.20
2023-02-15T17:38:22.776Z,2.20
2023-02-15T17:40:51.488Z,2.10
2023-02-15T17:43:21.474Z,2.10
2023-02-15T17:45:51.757Z,2.10
2023-02-15T17:48:48.321Z,2.00
2023-02-15T17:51:17.651Z,1.90
2023-02-15T17:54:07.130Z,1.80
2023-02-15T17:56:38.156Z,1.80
2023-02-15T17:59:15.672Z,1.70
2023-02-15T18:02:11.438Z,1.70
2023-02-15T18:04:59.502Z,1.60
2023-02-15T18:07:47.770Z,1.50
2023-02-15T18:10:40.789Z,1.50
2023-02-15T18:13:08.232Z,1.40
2023-02-15T18:15:37.740Z,1.40
2023-02-15T18:18:06.120Z,1.40
2023-02-15T18:20:38.540Z,1.40
2023-02-15T18:23:17.925Z,1.40
2023-02-15T18:25:46.961Z,1.40
2023-02-15T18:28:16.869Z,1.40
2023-02-15T18:30:44.002Z,1.40
2023-02-15T18:33:43.362Z,1.40
2023-02-15T18:36:22.586Z,1.40
2023-02-15T18:38:51.294Z,1.40
2023-02-15T18:41:22.465Z,1.40
2023-02-15T18:43:55.803Z,1.40
2023-02-15T18:46:26.690Z,1.40
2023-02-15T18:48:56.869Z,1.40
2023-02-15T18:51:26.786Z,1.40
2023-02-15T18:54:20.347Z,1.40
2023-02-15T18:57:00.710Z,1.40
2023-02-15T18:59:31.577Z,1.40
2023-02-15T19:02:00.678Z,1.40
2023-02-15T19:04:28.315Z,1.40
2023-02-15T19:06:57.133Z,1.50
2023-02-15T19:09:28.091Z,1.50
2023-02-15T19:11:56.241Z,1.50
2023-02-15T19:14:35.336Z,1.60
2023-02-15T19:17:05.373Z,1.60
2023-02-15T19:19:32.494Z,1.50
2023-02-15T19:22:05.808Z,1.50
2023-02-15T19:24:46.008Z,1.50
2023-02-15T19:27:36.377Z,1.50
2023-02-15T19:30:22.919Z,1.50
2023-02-15T19:32:51.487Z,1.50
2023-02-15T19:35:28.939Z,1.50
2023-02-15T19:38:03.529Z,1.50
2023-02-15T19:40:43.773Z,1.50
2023-02-15T19:43:20.326Z,1.50
2023-02-15T19:45:52.474Z,1.50
2023-02-15T19:48:20.884Z,1.50
2023-02-15T19:50:57.337Z,1.50
2023-02-15T19:53:34.251Z,1.50
2023-02-15T19:56:03.472Z,1.50
2023-02-15T19:58:33.791Z,1.50
2023-02-15T20:01:06.687Z,1.50
2023-02-15T20:03:42.924Z,1.40
2023-02-15T20:06:17.673Z,1.40
2023-02-15T20:08:46.801Z,1.30
2023-02-15T20:11:17.044Z,1.30
2023-02-15T20:13:44.297Z,1.10
2023-02-15T20:16:15.752Z,1.10
2023-02-15T20:18:47.155Z,1.00
2023-02-15T20:21:17.816Z,1.00
2023-02-15T20:23:50.512Z,0.90
2023-02-15T20:26:24.004Z,0.90
2023-02-15T20:29:00.653Z,0.90
2023-02-15T20:31:37.220Z,0.90
2023-02-15T20:34:08.658Z,0.90
2023-02-15T20:36:39.012Z,0.80
2023-02-15T20:39:20.093Z,0.90
2023-02-15T20:41:51.414Z,0.90
2023-02-15T20:44:22.375Z,1.00
2023-02-15T20:46:55.252Z,1.10
2023-02-15T20:49:25.514Z,1.10
2023-02-15T20:51:56.369Z,1.10
2023-02-15T20:54:32.806Z,1.10
2023-02-15T20:56:59.975Z,1.10
2023-02-15T20:59:32.811Z,1.10
2023-02-15T21:02:24.174Z,1.00
2023-02-15T21:07:36.545Z,0.90
2023-02-15T21:10:12.777Z,0.90
2023-02-15T21:12:41.219Z,0.80
2023-02-15T21:15:32.015Z,0.80
2023-02-15T21:18:04.798Z,0.70
2023-02-15T21:20:35.063Z,0.70
2023-02-15T21:23:05.867Z,0.70
2023-02-15T21:25:39.793Z,0.70
2023-02-15T21:28:23.136Z,0.80
2023-02-15T21:30:53.295Z,0.80
2023-02-15T21:33:29.915Z,0.70
2023-02-15T21:35:58.808Z,0.70
2023-02-15T21:38:34.343Z,0.60
2023-02-15T21:41:24.122Z,0.60
2023-02-15T21:44:14.760Z,0.20
2023-02-15T21:46:43.169Z,-1.20
2023-02-15T21:49:11.617Z,-2.60
2023-02-15T21:51:59.885Z,-3.30
2023-02-15T21:54:29.976Z,-3.80
2023-02-15T21:56:58.748Z,-4.40
2023-02-15T21:59:29.434Z,-4.50
2023-02-15T22:01:57.997Z,-4.60
2023-02-15T22:04:30.432Z,-4.60
2023-02-15T22:06:59.282Z,-4.70
2023-02-15T22:09:28.687Z,-4.90
2023-02-15T22:11:58.792Z,-5.10
2023-02-15T22:14:46.014Z,-5.50
2023-02-15T22:17:29.477Z,-5.70
2023-02-15T22:19:58.532Z,-5.80
2023-02-15T22:22:34.897Z,-5.80
2023-02-15T22:25:03.026Z,-6.00
2023-02-15T22:27:39.622Z,-6.10
2023-02-15T22:30:36.497Z,-6.20
2023-02-15T22:33:12.382Z,-6.30
2023-02-15T22:35:48.612Z,-6.20
2023-02-15T22:38:17.009Z,-5.90
2023-02-15T22:40:46.967Z,-5.80
2023-02-15T22:43:24.030Z,-5.70
2023-02-15T22:45:53.914Z,-5.70
2023-02-15T22:48:24.191Z,-5.70
2023-02-15T22:50:54.294Z,-5.60
2023-02-15T22:53:26.119Z,-5.60
2023-02-15T22:55:58.088Z,-5.70
2023-02-15T22:58:31.633Z,-5.60
2023-02-15T23:01:02.544Z,-5.50
2023-02-15T23:03:31.886Z,-5.30
2023-02-15T23:06:00.015Z,-4.10
2023-02-15T23:08:29.447Z,-3.70
2023-02-15T23:11:06.893Z,-4.10
2023-02-15T23:13:43.083Z,-4.50
2023-02-15T23:16:19.354Z,-4.70
2023-02-15T23:18:51.499Z,-5.00
2023-02-15T23:21:36.424Z,-5.00
2023-02-15T23:24:30.194Z,-5.00
2023-02-15T23:27:22.710Z,-5.00
2023-02-15T23:30:40.770Z,-5.00
2023-02-15T23:33:12.732Z,-5.00
2023-02-15T23:35:43.254Z,-5.00
2023-02-15T23:38:28.856Z,-5.00
2023-02-15T23:41:20.917Z,-4.80
2023-02-15T23:44:06.988Z,-4.40
2023-02-15T23:46:41.360Z,-3.70
2023-02-15T23:49:16.433Z,-3.40
2023-02-15T23:51:48.835Z,-3.20
2023-02-15T23:54:21.829Z,-3.00
2023-02-15T23:57:02.352Z,-2.90
2023-02-15T23:59:33.410Z,-2.80
